sensor_id;sensor_type;location;lat;lon;timestamp;P1;durP1;ratioP1;P2;durP2;ratioP2
32038;SDS011;18549;42.286;22.688;2023-04-12T00:00:40;13.33;;;10.80;;
32038;SDS011;18549;42.286;22.688;2023-04-12T00:03:09;13.80;;;10.83;;
32038;SDS011;18549;42.286;22.688;2023-04-12T00:05:36;13.73;;;11.10;;
32038;SDS011;18549;42.286;22.688;2023-04-12T00:08:05;15.70;;;11.17;;
32038;SDS011;18549;42.286;22.688;2023-04-12T00:10:35;19.93;;;10.97;;
32038;SDS011;18549;42.286;22.688;2023-04-12T00:13:04;11.83;;;10.53;;
32038;SDS011;18549;42.286;22.688;2023-04-12T00:15:31;15.77;;;11.40;;
32038;SDS011;18549;42.286;22.688;2023-04-12T00:17:59;14.87;;;11.47;;
32038;SDS011;18549;42.286;22.688;2023-04-12T00:20:26;19.47;;;12.00;;
32038;SDS011;18549;42.286;22.688;2023-04-12T00:22:54;12.97;;;11.40;;
32038;SDS011;18549;42.286;22.688;2023-04-12T00:25:21;18.47;;;12.40;;
32038;SDS011;18549;42.286;22.688;2023-04-12T00:27:49;16.00;;;12.43;;
32038;SDS011;18549;42.286;22.688;2023-04-12T00:30:18;15.13;;;12.40;;
32038;SDS011;18549;42.286;22.688;2023-04-12T00:32:46;15.80;;;12.37;;
32038;SDS011;18549;42.286;22.688;2023-04-12T00:35:13;13.10;;;11.60;;
32038;SDS011;18549;42.286;22.688;2023-04-12T00:37:41;14.80;;;12.60;;
32038;SDS011;18549;42.286;22.688;2023-04-12T00:40:09;16.37;;;11.70;;
32038;SDS011;18549;42.286;22.688;2023-04-12T00:42:37;16.73;;;11.83;;
32038;SDS011;18549;42.286;22.688;2023-04-12T00:45:05;13.83;;;12.00;;
32038;SDS011;18549;42.286;22.688;2023-04-12T00:47:35;15.07;;;11.33;;
32038;SDS011;18549;42.286;22.688;2023-04-12T00:50:03;15.93;;;11.90;;
32038;SDS011;18549;42.286;22.688;2023-04-12T00:52:31;15.70;;;11.53;;
32038;SDS011;18549;42.286;22.688;2023-04-12T00:55:00;16.93;;;12.93;;
32038;SDS011;18549;42.286;22.688;2023-04-12T00:57:29;16.13;;;11.60;;
32038;SDS011;18549;42.286;22.688;2023-04-12T01:00:00;14.93;;;11.33;;
32038;SDS011;18549;42.286;22.688;2023-04-12T01:02:27;17.20;;;12.73;;
32038;SDS011;18549;42.286;22.688;2023-04-12T01:04:57;15.43;;;11.87;;
32038;SDS011;18549;42.286;22.688;2023-04-12T01:07:28;13.43;;;12.03;;
32038;SDS011;18549;42.286;22.688;2023-04-12T01:10:06;14.23;;;11.77;;
32038;SDS011;18549;42.286;22.688;2023-04-12T01:12:44;18.83;;;12.33;;
32038;SDS011;18549;42.286;22.688;2023-04-12T01:15:19;14.57;;;11.50;;
32038;SDS011;18549;42.286;22.688;2023-04-12T01:17:51;17.43;;;11.87;;
32038;SDS011;18549;42.286;22.688;2023-04-12T01:20:25;13.23;;;11.80;;
32038;SDS011;18549;42.286;22.688;2023-04-12T01:23:05;15.17;;;10.83;;
32038;SDS011;18549;42.286;22.688;2023-04-12T01:25:47;13.40;;;10.63;;
32038;SDS011;18549;42.286;22.688;2023-04-12T01:28:32;14.93;;;11.90;;
32038;SDS011;18549;42.286;22.688;2023-04-12T01:31:01;15.83;;;11.63;;
32038;SDS011;18549;42.286;22.688;2023-04-12T01:33:31;12.27;;;10.97;;
32038;SDS011;18549;42.286;22.688;2023-04-12T01:36:03;12.77;;;11.27;;
32038;SDS011;18549;42.286;22.688;2023-04-12T01:38:37;14.73;;;11.20;;
32038;SDS011;18549;42.286;22.688;2023-04-12T01:41:08;12.50;;;10.23;;
32038;SDS011;18549;42.286;22.688;2023-04-12T01:43:46;16.23;;;12.43;;
32038;SDS011;18549;42.286;22.688;2023-04-12T01:46:19;15.37;;;11.33;;
32038;SDS011;18549;42.286;22.688;2023-04-12T01:48:51;11.97;;;10.17;;
32038;SDS011;18549;42.286;22.688;2023-04-12T01:51:22;14.13;;;12.50;;
32038;SDS011;18549;42.286;22.688;2023-04-12T01:54:01;20.73;;;12.33;;
32038;SDS011;18549;42.286;22.688;2023-04-12T01:56:35;18.73;;;13.80;;
32038;SDS011;18549;42.286;22.688;2023-04-12T01:59:06;16.83;;;13.43;;
32038;SDS011;18549;42.286;22.688;2023-04-12T02:01:37;14.60;;;11.93;;
32038;SDS011;18549;42.286;22.688;2023-04-12T02:04:04;17.37;;;12.00;;
32038;SDS011;18549;42.286;22.688;2023-04-12T02:06:33;14.23;;;11.47;;
32038;SDS011;18549;42.286;22.688;2023-04-12T02:09:02;18.87;;;11.67;;
32038;SDS011;18549;42.286;22.688;2023-04-12T02:11:30;15.17;;;10.37;;
32038;SDS011;18549;42.286;22.688;2023-04-12T02:13:58;12.57;;;11.27;;
32038;SDS011;18549;42.286;22.688;2023-04-12T02:16:27;13.43;;;10.80;;
32038;SDS011;18549;42.286;22.688;2023-04-12T02:19:00;15.27;;;11.80;;
32038;SDS011;18549;42.286;22.688;2023-04-12T02:21:47;18.67;;;11.33;;
32038;SDS011;18549;42.286;22.688;2023-04-12T02:24:15;16.13;;;11.70;;
32038;SDS011;18549;42.286;22.688;2023-04-12T02:26:42;11.13;;;10.00;;
32038;SDS011;18549;42.286;22.688;2023-04-12T02:29:10;13.27;;;11.53;;
32038;SDS011;18549;42.286;22.688;2023-04-12T02:31:39;14.80;;;10.67;;
32038;SDS011;18549;42.286;22.688;2023-04-12T02:34:07;13.47;;;10.27;;
32038;SDS011;18549;42.286;22.688;2023-04-12T02:36:37;15.53;;;10.50;;
32038;SDS011;18549;42.286;22.688;2023-04-12T02:39:05;17.67;;;11.67;;
32038;SDS011;18549;42.286;22.688;2023-04-12T02:41:33;11.60;;;10.37;;
32038;SDS011;18549;42.286;22.688;2023-04-12T02:44:00;13.13;;;10.40;;
32038;SDS011;18549;42.286;22.688;2023-04-12T02:46:28;12.77;;;10.03;;
32038;SDS011;18549;42.286;22.688;2023-04-12T02:48:57;13.30;;;11.43;;
32038;SDS011;18549;42.286;22.688;2023-04-12T02:51:24;16.63;;;10.23;;
32038;SDS011;18549;42.286;22.688;2023-04-12T02:53:52;13.40;;;11.30;;
32038;SDS011;18549;42.286;22.688;2023-04-12T02:56:19;15.40;;;11.57;;
32038;SDS011;18549;42.286;22.688;2023-04-12T02:58:48;15.93;;;14.07;;
32038;SDS011;18549;42.286;22.688;2023-04-12T03:01:16;19.10;;;15.63;;
32038;SDS011;18549;42.286;22.688;2023-04-12T03:03:43;14.20;;;11.57;;
32038;SDS011;18549;42.286;22.688;2023-04-12T03:06:12;13.33;;;10.90;;
32038;SDS011;18549;42.286;22.688;2023-04-12T03:08:40;17.50;;;15.30;;
32038;SDS011;18549;42.286;22.688;2023-04-12T03:11:07;19.80;;;15.73;;
32038;SDS011;18549;42.286;22.688;2023-04-12T03:13:35;22.93;;;17.97;;
32038;SDS011;18549;42.286;22.688;2023-04-12T03:16:18;15.93;;;13.33;;
32038;SDS011;18549;42.286;22.688;2023-04-12T03:18:48;14.20;;;12.43;;
32038;SDS011;18549;42.286;22.688;2023-04-12T03:21:17;14.97;;;12.43;;
32038;SDS011;18549;42.286;22.688;2023-04-12T03:23:45;16.50;;;13.27;;
32038;SDS011;18549;42.286;22.688;2023-04-12T03:26:16;17.10;;;12.73;;
32038;SDS011;18549;42.286;22.688;2023-04-12T03:28:45;16.40;;;11.33;;
32038;SDS011;18549;42.286;22.688;2023-04-12T03:31:12;13.00;;;11.37;;
32038;SDS011;18549;42.286;22.688;2023-04-12T03:33:45;13.07;;;11.30;;
32038;SDS011;18549;42.286;22.688;2023-04-12T03:36:13;15.33;;;11.90;;
32038;SDS011;18549;42.286;22.688;2023-04-12T03:38:42;15.87;;;12.40;;
32038;SDS011;18549;42.286;22.688;2023-04-12T03:41:09;13.23;;;11.83;;
32038;SDS011;18549;42.286;22.688;2023-04-12T03:43:38;16.67;;;11.67;;
32038;SDS011;18549;42.286;22.688;2023-04-12T03:46:12;14.27;;;12.60;;
32038;SDS011;18549;42.286;22.688;2023-04-12T03:48:50;13.10;;;11.70;;
32038;SDS011;18549;42.286;22.688;2023-04-12T03:51:18;12.73;;;11.43;;
32038;SDS011;18549;42.286;22.688;2023-04-12T03:53:54;15.60;;;11.10;;
32038;SDS011;18549;42.286;22.688;2023-04-12T03:56:22;12.43;;;10.77;;
32038;SDS011;18549;42.286;22.688;2023-04-12T03:58:54;15.47;;;12.97;;
32038;SDS011;18549;42.286;22.688;2023-04-12T04:01:24;17.10;;;14.00;;
32038;SDS011;18549;42.286;22.688;2023-04-12T04:03:52;19.67;;;15.70;;
32038;SDS011;18549;42.286;22.688;2023-04-12T04:06:20;21.57;;;11.70;;
32038;SDS011;18549;42.286;22.688;2023-04-12T04:08:50;16.57;;;11.53;;
32038;SDS011;18549;42.286;22.688;2023-04-12T04:11:23;16.03;;;9.53;;
32038;SDS011;18549;42.286;22.688;2023-04-12T04:13:51;16.93;;;10.63;;
32038;SDS011;18549;42.286;22.688;2023-04-12T04:16:19;13.13;;;11.80;;
32038;SDS011;18549;42.286;22.688;2023-04-12T04:18:47;20.10;;;13.93;;
32038;SDS011;18549;42.286;22.688;2023-04-12T04:21:15;18.17;;;12.47;;
32038;SDS011;18549;42.286;22.688;2023-04-12T04:23:43;19.23;;;12.03;;
32038;SDS011;18549;42.286;22.688;2023-04-12T04:26:13;18.83;;;11.17;;
32038;SDS011;18549;42.286;22.688;2023-04-12T04:28:43;14.33;;;10.13;;
32038;SDS011;18549;42.286;22.688;2023-04-12T04:31:14;12.00;;;9.70;;
32038;SDS011;18549;42.286;22.688;2023-04-12T04:33:42;12.90;;;9.10;;
32038;SDS011;18549;42.286;22.688;2023-04-12T04:36:12;12.93;;;9.43;;
32038;SDS011;18549;42.286;22.688;2023-04-12T04:38:42;12.27;;;7.73;;
32038;SDS011;18549;42.286;22.688;2023-04-12T04:41:16;9.13;;;7.33;;
32038;SDS011;18549;42.286;22.688;2023-04-12T04:43:49;14.57;;;9.27;;
32038;SDS011;18549;42.286;22.688;2023-04-12T04:46:18;9.60;;;7.43;;
32038;SDS011;18549;42.286;22.688;2023-04-12T04:48:49;12.53;;;10.57;;
32038;SDS011;18549;42.286;22.688;2023-04-12T04:51:21;14.37;;;7.37;;
32038;SDS011;18549;42.286;22.688;2023-04-12T04:53:49;9.93;;;8.23;;
32038;SDS011;18549;42.286;22.688;2023-04-12T04:56:16;10.17;;;8.37;;
32038;SDS011;18549;42.286;22.688;2023-04-12T04:58:44;18.70;;;7.20;;
32038;SDS011;18549;42.286;22.688;2023-04-12T05:01:13;8.20;;;6.83;;
32038;SDS011;18549;42.286;22.688;2023-04-12T05:03:41;8.20;;;6.80;;
32038;SDS011;18549;42.286;22.688;2023-04-12T05:06:09;10.80;;;7.10;;
32038;SDS011;18549;42.286;22.688;2023-04-12T05:08:37;6.47;;;5.43;;
32038;SDS011;18549;42.286;22.688;2023-04-12T05:11:06;7.03;;;5.73;;
32038;SDS011;18549;42.286;22.688;2023-04-12T05:13:35;8.67;;;5.20;;
32038;SDS011;18549;42.286;22.688;2023-04-12T05:16:04;13.13;;;6.13;;
32038;SDS011;18549;42.286;22.688;2023-04-12T05:18:35;11.97;;;7.23;;
32038;SDS011;18549;42.286;22.688;2023-04-12T05:21:02;9.07;;;7.30;;
32038;SDS011;18549;42.286;22.688;2023-04-12T05:23:33;12.13;;;5.90;;
32038;SDS011;18549;42.286;22.688;2023-04-12T05:26:01;10.80;;;6.67;;
32038;SDS011;18549;42.286;22.688;2023-04-12T05:28:30;12.87;;;7.57;;
32038;SDS011;18549;42.286;22.688;2023-04-12T05:30:58;15.20;;;10.43;;
32038;SDS011;18549;42.286;22.688;2023-04-12T05:33:26;11.23;;;8.93;;
32038;SDS011;18549;42.286;22.688;2023-04-12T05:35:55;13.00;;;8.23;;
32038;SDS011;18549;42.286;22.688;2023-04-12T05:38:23;7.63;;;5.13;;
32038;SDS011;18549;42.286;22.688;2023-04-12T05:40:53;7.40;;;5.40;;
32038;SDS011;18549;42.286;22.688;2023-04-12T05:43:21;9.00;;;6.10;;
32038;SDS011;18549;42.286;22.688;2023-04-12T05:45:50;7.90;;;4.73;;
32038;SDS011;18549;42.286;22.688;2023-04-12T05:48:18;7.32;;;5.85;;
32038;SDS011;18549;42.286;22.688;2023-04-12T05:50:49;21.13;;;9.80;;
32038;SDS011;18549;42.286;22.688;2023-04-12T05:53:20;10.23;;;7.00;;
32038;SDS011;18549;42.286;22.688;2023-04-12T05:55:48;12.40;;;7.20;;
32038;SDS011;18549;42.286;22.688;2023-04-12T05:58:19;7.37;;;4.07;;
32038;SDS011;18549;42.286;22.688;2023-04-12T06:00:48;7.40;;;3.87;;
32038;SDS011;18549;42.286;22.688;2023-04-12T06:03:19;4.30;;;2.73;;
32038;SDS011;18549;42.286;22.688;2023-04-12T06:05:51;4.83;;;3.30;;
32038;SDS011;18549;42.286;22.688;2023-04-12T06:08:33;4.60;;;3.30;;
32038;SDS011;18549;42.286;22.688;2023-04-12T06:11:03;9.03;;;5.97;;
32038;SDS011;18549;42.286;22.688;2023-04-12T06:13:32;3.67;;;3.37;;
32038;SDS011;18549;42.286;22.688;2023-04-12T06:16:00;8.93;;;5.23;;
32038;SDS011;18549;42.286;22.688;2023-04-12T06:18:29;6.37;;;3.60;;
32038;SDS011;18549;42.286;22.688;2023-04-12T06:21:12;7.90;;;4.43;;
32038;SDS011;18549;42.286;22.688;2023-04-12T06:23:41;8.43;;;5.83;;
32038;SDS011;18549;42.286;22.688;2023-04-12T06:26:10;11.47;;;5.40;;
32038;SDS011;18549;42.286;22.688;2023-04-12T06:28:39;7.77;;;6.27;;
32038;SDS011;18549;42.286;22.688;2023-04-12T06:31:09;8.10;;;4.90;;
32038;SDS011;18549;42.286;22.688;2023-04-12T06:33:38;5.70;;;3.80;;
32038;SDS011;18549;42.286;22.688;2023-04-12T06:36:06;4.20;;;3.47;;
32038;SDS011;18549;42.286;22.688;2023-04-12T06:38:35;4.93;;;3.17;;
32038;SDS011;18549;42.286;22.688;2023-04-12T06:41:05;4.20;;;3.60;;
32038;SDS011;18549;42.286;22.688;2023-04-12T06:43:33;6.23;;;2.87;;
32038;SDS011;18549;42.286;22.688;2023-04-12T06:46:01;3.20;;;2.40;;
32038;SDS011;18549;42.286;22.688;2023-04-12T06:48:29;6.73;;;2.17;;
32038;SDS011;18549;42.286;22.688;2023-04-12T06:50:56;5.17;;;3.00;;
32038;SDS011;18549;42.286;22.688;2023-04-12T06:53:24;3.20;;;2.57;;
32038;SDS011;18549;42.286;22.688;2023-04-12T06:55:52;2.97;;;2.13;;
32038;SDS011;18549;42.286;22.688;2023-04-12T06:58:21;3.77;;;2.03;;
32038;SDS011;18549;42.286;22.688;2023-04-12T07:00:48;3.13;;;2.23;;
32038;SDS011;18549;42.286;22.688;2023-04-12T07:03:16;7.23;;;2.07;;
32038;SDS011;18549;42.286;22.688;2023-04-12T07:05:44;3.87;;;1.50;;
32038;SDS011;18549;42.286;22.688;2023-04-12T07:08:11;1.93;;;1.50;;
32038;SDS011;18549;42.286;22.688;2023-04-12T07:10:39;8.57;;;2.93;;
32038;SDS011;18549;42.286;22.688;2023-04-12T07:13:06;6.27;;;3.87;;
32038;SDS011;18549;42.286;22.688;2023-04-12T07:15:36;12.47;;;5.17;;
32038;SDS011;18549;42.286;22.688;2023-04-12T07:18:05;9.57;;;2.90;;
32038;SDS011;18549;42.286;22.688;2023-04-12T07:20:32;6.07;;;3.67;;
32038;SDS011;18549;42.286;22.688;2023-04-12T07:23:00;7.63;;;4.00;;
32038;SDS011;18549;42.286;22.688;2023-04-12T07:25:29;23.87;;;15.17;;
32038;SDS011;18549;42.286;22.688;2023-04-12T07:28:03;13.43;;;8.77;;
32038;SDS011;18549;42.286;22.688;2023-04-12T07:31:07;4.80;;;3.03;;
32038;SDS011;18549;42.286;22.688;2023-04-12T07:33:36;5.20;;;3.23;;
32038;SDS011;18549;42.286;22.688;2023-04-12T07:36:06;7.83;;;4.33;;
32038;SDS011;18549;42.286;22.688;2023-04-12T07:38:34;15.63;;;7.73;;
32038;SDS011;18549;42.286;22.688;2023-04-12T07:41:02;14.77;;;7.87;;
32038;SDS011;18549;42.286;22.688;2023-04-12T07:43:30;7.37;;;4.30;;
32038;SDS011;18549;42.286;22.688;2023-04-12T07:45:58;5.73;;;2.70;;
32038;SDS011;18549;42.286;22.688;2023-04-12T07:48:30;5.43;;;3.30;;
32038;SDS011;18549;42.286;22.688;2023-04-12T07:50:59;7.53;;;4.73;;
32038;SDS011;18549;42.286;22.688;2023-04-12T07:53:28;9.53;;;4.77;;
32038;SDS011;18549;42.286;22.688;2023-04-12T07:55:57;12.67;;;4.80;;
32038;SDS011;18549;42.286;22.688;2023-04-12T07:58:24;12.43;;;6.60;;
32038;SDS011;18549;42.286;22.688;2023-04-12T08:00:52;9.43;;;4.87;;
32038;SDS011;18549;42.286;22.688;2023-04-12T08:03:21;7.63;;;4.90;;
32038;SDS011;18549;42.286;22.688;2023-04-12T08:05:50;6.93;;;4.70;;
32038;SDS011;18549;42.286;22.688;2023-04-12T08:08:19;9.60;;;4.63;;
32038;SDS011;18549;42.286;22.688;2023-04-12T08:10:47;7.60;;;3.53;;
32038;SDS011;18549;42.286;22.688;2023-04-12T08:13:18;9.27;;;5.33;;
32038;SDS011;18549;42.286;22.688;2023-04-12T08:15:47;6.27;;;3.63;;
32038;SDS011;18549;42.286;22.688;2023-04-12T08:18:20;2.87;;;2.10;;
32038;SDS011;18549;42.286;22.688;2023-04-12T08:20:51;3.20;;;2.13;;
32038;SDS011;18549;42.286;22.688;2023-04-12T08:23:21;6.07;;;2.73;;
32038;SDS011;18549;42.286;22.688;2023-04-12T08:25:51;2.73;;;2.43;;
32038;SDS011;18549;42.286;22.688;2023-04-12T08:28:23;3.43;;;1.90;;
32038;SDS011;18549;42.286;22.688;2023-04-12T08:30:57;8.70;;;4.20;;
32038;SDS011;18549;42.286;22.688;2023-04-12T08:33:25;4.77;;;2.67;;
32038;SDS011;18549;42.286;22.688;2023-04-12T08:35:56;2.63;;;2.13;;
32038;SDS011;18549;42.286;22.688;2023-04-12T08:38:25;8.03;;;2.67;;
32038;SDS011;18549;42.286;22.688;2023-04-12T08:40:52;3.30;;;1.70;;
32038;SDS011;18549;42.286;22.688;2023-04-12T08:43:21;4.33;;;3.13;;
32038;SDS011;18549;42.286;22.688;2023-04-12T08:45:53;2.97;;;2.13;;
32038;SDS011;18549;42.286;22.688;2023-04-12T08:48:22;2.90;;;1.80;;
32038;SDS011;18549;42.286;22.688;2023-04-12T08:50:51;4.43;;;2.50;;
32038;SDS011;18549;42.286;22.688;2023-04-12T08:53:22;3.07;;;2.77;;
32038;SDS011;18549;42.286;22.688;2023-04-12T08:55:49;3.73;;;2.50;;
32038;SDS011;18549;42.286;22.688;2023-04-12T08:58:17;4.15;;;2.30;;
32038;SDS011;18549;42.286;22.688;2023-04-12T09:00:46;5.83;;;2.13;;
32038;SDS011;18549;42.286;22.688;2023-04-12T09:03:14;3.87;;;2.30;;
32038;SDS011;18549;42.286;22.688;2023-04-12T09:05:42;3.33;;;2.13;;
32038;SDS011;18549;42.286;22.688;2023-04-12T09:08:09;5.20;;;2.00;;
32038;SDS011;18549;42.286;22.688;2023-04-12T09:10:39;3.37;;;2.30;;
32038;SDS011;18549;42.286;22.688;2023-04-12T09:13:07;2.33;;;1.70;;
32038;SDS011;18549;42.286;22.688;2023-04-12T09:15:35;2.43;;;1.83;;
32038;SDS011;18549;42.286;22.688;2023-04-12T09:18:15;4.30;;;3.00;;
32038;SDS011;18549;42.286;22.688;2023-04-12T09:20:44;5.90;;;2.73;;
32038;SDS011;18549;42.286;22.688;2023-04-12T09:23:15;6.50;;;4.30;;
32038;SDS011;18549;42.286;22.688;2023-04-12T09:25:46;5.40;;;3.87;;
32038;SDS011;18549;42.286;22.688;2023-04-12T09:28:21;5.70;;;2.60;;
32038;SDS011;18549;42.286;22.688;2023-04-12T09:30:50;4.18;;;3.30;;
32038;SDS011;18549;42.286;22.688;2023-04-12T09:33:19;5.67;;;3.87;;
32038;SDS011;18549;42.286;22.688;2023-04-12T09:35:53;6.53;;;3.53;;
32038;SDS011;18549;42.286;22.688;2023-04-12T09:38:27;5.03;;;2.93;;
32038;SDS011;18549;42.286;22.688;2023-04-12T09:40:58;4.30;;;2.47;;
32038;SDS011;18549;42.286;22.688;2023-04-12T09:43:44;6.47;;;2.47;;
32038;SDS011;18549;42.286;22.688;2023-04-12T09:46:16;6.80;;;3.53;;
32038;SDS011;18549;42.286;22.688;2023-04-12T09:48:49;4.63;;;2.60;;
32038;SDS011;18549;42.286;22.688;2023-04-12T09:51:27;5.40;;;2.83;;
32038;SDS011;18549;42.286;22.688;2023-04-12T09:54:02;7.95;;;2.37;;
32038;SDS011;18549;42.286;22.688;2023-04-12T09:56:35;2.55;;;1.87;;
32038;SDS011;18549;42.286;22.688;2023-04-12T09:59:07;2.83;;;1.75;;
32038;SDS011;18549;42.286;22.688;2023-04-12T10:01:37;2.70;;;2.30;;
32038;SDS011;18549;42.286;22.688;2023-04-12T10:04:07;4.32;;;1.95;;
32038;SDS011;18549;42.286;22.688;2023-04-12T10:06:36;3.07;;;1.70;;
32038;SDS011;18549;42.286;22.688;2023-04-12T10:09:05;5.57;;;2.72;;
32038;SDS011;18549;42.286;22.688;2023-04-12T10:11:35;3.58;;;1.85;;
32038;SDS011;18549;42.286;22.688;2023-04-12T10:14:06;4.10;;;1.83;;
32038;SDS011;18549;42.286;22.688;2023-04-12T10:16:39;2.60;;;2.03;;
32038;SDS011;18549;42.286;22.688;2023-04-12T10:19:08;3.00;;;2.17;;
32038;SDS011;18549;42.286;22.688;2023-04-12T10:21:38;4.93;;;2.27;;
32038;SDS011;18549;42.286;22.688;2023-04-12T10:24:06;4.40;;;2.20;;
32038;SDS011;18549;42.286;22.688;2023-04-12T10:26:42;3.67;;;2.03;;
32038;SDS011;18549;42.286;22.688;2023-04-12T10:29:23;4.28;;;1.80;;
32038;SDS011;18549;42.286;22.688;2023-04-12T10:31:56;3.23;;;1.90;;
32038;SDS011;18549;42.286;22.688;2023-04-12T10:34:28;3.33;;;2.10;;
32038;SDS011;18549;42.286;22.688;2023-04-12T10:36:59;9.03;;;2.20;;
32038;SDS011;18549;42.286;22.688;2023-04-12T10:39:37;11.80;;;1.90;;
32038;SDS011;18549;42.286;22.688;2023-04-12T10:42:21;8.07;;;2.13;;
32038;SDS011;18549;42.286;22.688;2023-04-12T10:44:52;3.30;;;1.73;;
32038;SDS011;18549;42.286;22.688;2023-04-12T10:50:23;7.93;;;1.80;;
32038;SDS011;18549;42.286;22.688;2023-04-12T10:55:52;9.32;;;2.85;;
32038;SDS011;18549;42.286;22.688;2023-04-12T11:01:23;15.40;;;4.37;;
32038;SDS011;18549;42.286;22.688;2023-04-12T11:04:06;9.02;;;2.28;;
32038;SDS011;18549;42.286;22.688;2023-04-12T11:07:05;5.07;;;1.55;;
32038;SDS011;18549;42.286;22.688;2023-04-12T11:10:14;4.72;;;2.20;;
32038;SDS011;18549;42.286;22.688;2023-04-12T11:19:50;4.78;;;1.27;;
32038;SDS011;18549;42.286;22.688;2023-04-12T11:22:20;3.15;;;1.40;;
32038;SDS011;18549;42.286;22.688;2023-04-12T11:24:49;11.88;;;2.42;;
32038;SDS011;18549;42.286;22.688;2023-04-12T11:27:22;2.65;;;1.65;;
32038;SDS011;18549;42.286;22.688;2023-04-12T11:29:52;6.40;;;1.92;;
32038;SDS011;18549;42.286;22.688;2023-04-12T11:32:24;3.03;;;1.85;;
32038;SDS011;18549;42.286;22.688;2023-04-12T11:34:56;10.00;;;1.67;;
32038;SDS011;18549;42.286;22.688;2023-04-12T11:37:24;2.58;;;1.30;;
32038;SDS011;18549;42.286;22.688;2023-04-12T11:39:54;3.83;;;1.90;;
32038;SDS011;18549;42.286;22.688;2023-04-12T11:42:23;5.18;;;1.48;;
32038;SDS011;18549;42.286;22.688;2023-04-12T11:44:53;3.40;;;2.58;;
32038;SDS011;18549;42.286;22.688;2023-04-12T11:47:21;1.17;;;0.90;;
32038;SDS011;18549;42.286;22.688;2023-04-12T11:49:52;2.53;;;1.80;;
32038;SDS011;18549;42.286;22.688;2023-04-12T11:52:26;1.98;;;0.90;;
32038;SDS011;18549;42.286;22.688;2023-04-12T11:54:57;1.85;;;1.17;;
32038;SDS011;18549;42.286;22.688;2023-04-12T11:57:29;39.17;;;2.22;;
32038;SDS011;18549;42.286;22.688;2023-04-12T11:59:57;3.15;;;1.23;;
32038;SDS011;18549;42.286;22.688;2023-04-12T12:02:25;3.87;;;1.70;;
32038;SDS011;18549;42.286;22.688;2023-04-12T12:04:53;10.43;;;1.92;;
32038;SDS011;18549;42.286;22.688;2023-04-12T12:07:23;6.93;;;1.92;;
32038;SDS011;18549;42.286;22.688;2023-04-12T12:09:50;4.72;;;1.98;;
32038;SDS011;18549;42.286;22.688;2023-04-12T12:12:18;5.43;;;1.60;;
32038;SDS011;18549;42.286;22.688;2023-04-12T12:14:49;2.92;;;1.50;;
32038;SDS011;18549;42.286;22.688;2023-04-12T12:17:17;3.28;;;1.10;;
32038;SDS011;18549;42.286;22.688;2023-04-12T12:19:45;2.95;;;1.80;;
32038;SDS011;18549;42.286;22.688;2023-04-12T12:22:14;4.75;;;1.65;;
32038;SDS011;18549;42.286;22.688;2023-04-12T12:24:45;2.95;;;1.52;;
32038;SDS011;18549;42.286;22.688;2023-04-12T12:27:16;3.90;;;1.17;;
32038;SDS011;18549;42.286;22.688;2023-04-12T12:29:47;5.97;;;1.30;;
32038;SDS011;18549;42.286;22.688;2023-04-12T12:32:19;2.25;;;1.27;;
32038;SDS011;18549;42.286;22.688;2023-04-12T12:34:49;11.60;;;1.52;;
32038;SDS011;18549;42.286;22.688;2023-04-12T12:37:19;8.23;;;1.50;;
32038;SDS011;18549;42.286;22.688;2023-04-12T12:40:06;2.65;;;1.50;;
32038;SDS011;18549;42.286;22.688;2023-04-12T12:42:44;2.95;;;1.35;;
32038;SDS011;18549;42.286;22.688;2023-04-12T12:45:14;1.92;;;1.33;;
32038;SDS011;18549;42.286;22.688;2023-04-12T12:47:46;1.65;;;1.00;;
32038;SDS011;18549;42.286;22.688;2023-04-12T12:50:18;2.93;;;1.17;;
32038;SDS011;18549;42.286;22.688;2023-04-12T12:52:47;2.95;;;1.73;;
32038;SDS011;18549;42.286;22.688;2023-04-12T12:55:17;1.90;;;1.25;;
32038;SDS011;18549;42.286;22.688;2023-04-12T12:57:45;2.20;;;1.48;;
32038;SDS011;18549;42.286;22.688;2023-04-12T13:00:14;2.97;;;1.70;;
32038;SDS011;18549;42.286;22.688;2023-04-12T13:02:43;9.32;;;2.28;;
32038;SDS011;18549;42.286;22.688;2023-04-12T13:05:11;2.92;;;1.67;;
32038;SDS011;18549;42.286;22.688;2023-04-12T13:07:39;3.45;;;1.70;;
32038;SDS011;18549;42.286;22.688;2023-04-12T13:10:08;2.97;;;1.23;;
32038;SDS011;18549;42.286;22.688;2023-04-12T13:12:38;3.45;;;2.10;;
32038;SDS011;18549;42.286;22.688;2023-04-12T13:15:06;3.33;;;1.90;;
32038;SDS011;18549;42.286;22.688;2023-04-12T13:17:36;6.93;;;2.25;;
32038;SDS011;18549;42.286;22.688;2023-04-12T13:20:04;6.90;;;2.87;;
32038;SDS011;18549;42.286;22.688;2023-04-12T13:22:33;34.80;;;11.38;;
32038;SDS011;18549;42.286;22.688;2023-04-12T13:25:01;24.98;;;8.85;;
32038;SDS011;18549;42.286;22.688;2023-04-12T13:27:30;5.70;;;3.22;;
32038;SDS011;18549;42.286;22.688;2023-04-12T13:30:00;2.58;;;1.40;;
32038;SDS011;18549;42.286;22.688;2023-04-12T13:32:27;4.50;;;1.73;;
32038;SDS011;18549;42.286;22.688;2023-04-12T13:34:55;1.92;;;1.35;;
32038;SDS011;18549;42.286;22.688;2023-04-12T13:37:23;3.33;;;1.60;;
32038;SDS011;18549;42.286;22.688;2023-04-12T13:39:53;5.22;;;1.80;;
32038;SDS011;18549;42.286;22.688;2023-04-12T13:42:21;3.08;;;1.85;;
32038;SDS011;18549;42.286;22.688;2023-04-12T13:44:48;5.07;;;2.65;;
32038;SDS011;18549;42.286;22.688;2023-04-12T13:47:18;6.10;;;2.03;;
32038;SDS011;18549;42.286;22.688;2023-04-12T13:49:46;3.05;;;0.95;;
32038;SDS011;18549;42.286;22.688;2023-04-12T13:52:14;2.33;;;1.50;;
32038;SDS011;18549;42.286;22.688;2023-04-12T13:54:42;5.28;;;1.75;;
32038;SDS011;18549;42.286;22.688;2023-04-12T13:57:10;6.10;;;2.33;;
32038;SDS011;18549;42.286;22.688;2023-04-12T13:59:38;5.18;;;1.98;;
32038;SDS011;18549;42.286;22.688;2023-04-12T14:02:06;3.62;;;2.20;;
32038;SDS011;18549;42.286;22.688;2023-04-12T14:04:36;3.62;;;2.47;;
32038;SDS011;18549;42.286;22.688;2023-04-12T14:07:16;4.00;;;2.08;;
32038;SDS011;18549;42.286;22.688;2023-04-12T14:09:43;12.65;;;5.25;;
32038;SDS011;18549;42.286;22.688;2023-04-12T14:12:13;6.60;;;3.83;;
32038;SDS011;18549;42.286;22.688;2023-04-12T14:14:40;8.13;;;3.22;;
32038;SDS011;18549;42.286;22.688;2023-04-12T14:17:09;4.82;;;2.22;;
32038;SDS011;18549;42.286;22.688;2023-04-12T14:19:38;5.20;;;1.87;;
32038;SDS011;18549;42.286;22.688;2023-04-12T14:22:06;3.30;;;1.90;;
32038;SDS011;18549;42.286;22.688;2023-04-12T14:24:34;6.00;;;2.20;;
32038;SDS011;18549;42.286;22.688;2023-04-12T14:27:02;1.30;;;0.95;;
32038;SDS011;18549;42.286;22.688;2023-04-12T14:29:30;1.42;;;1.10;;
32038;SDS011;18549;42.286;22.688;2023-04-12T14:31:58;3.78;;;1.73;;
32038;SDS011;18549;42.286;22.688;2023-04-12T14:34:25;4.93;;;1.92;;
32038;SDS011;18549;42.286;22.688;2023-04-12T14:36:56;2.97;;;1.65;;
32038;SDS011;18549;42.286;22.688;2023-04-12T14:39:24;7.93;;;1.20;;
32038;SDS011;18549;42.286;22.688;2023-04-12T14:41:52;7.15;;;1.77;;
32038;SDS011;18549;42.286;22.688;2023-04-12T14:44:23;4.55;;;1.60;;
32038;SDS011;18549;42.286;22.688;2023-04-12T14:46:52;4.22;;;2.35;;
32038;SDS011;18549;42.286;22.688;2023-04-12T14:49:20;3.97;;;1.87;;
32038;SDS011;18549;42.286;22.688;2023-04-12T14:51:49;5.25;;;2.83;;
32038;SDS011;18549;42.286;22.688;2023-04-12T14:54:22;4.37;;;1.83;;
32038;SDS011;18549;42.286;22.688;2023-04-12T14:56:50;2.25;;;1.45;;
32038;SDS011;18549;42.286;22.688;2023-04-12T14:59:18;4.87;;;1.60;;